Reecon Whale — 9HA2885 — position and weather

sailwx.info

Track history (hours):
 
Tides and Currents Weather Stations Pressure Air Temp Water Temp Dewpoint Dewpoint Depression Visibility Wind Speed Wind Dir Waves Ship Positions

Reecon Whale

Last reported at 2016-Sep-10 11:24 UTC. Time now 2016-Sep-28 13:40 UTC.
Position N 39°48' E 025°56'.
Warning: this ship's position is 18 days out of date.

Length 145 m; draft 6.9 m.

Type: Ship. MMSI: 256579000.

Date/timePositionNaut miles runAvg speedWind from/ knotsBaromVisibWave heightAir tempDewpointWater temp
2016-Sep-10 11:24N 39°48' E 025°56'17 2.5
2016-Sep-10 04:31N 39°34' E 025°42'10 9.8
2016-Sep-10 03:31N 39°26' E 025°35'9 9.9
2016-Sep-10 02:33N 39°18' E 025°30'1010.2
2016-Sep-10 01:33N 39°08' E 025°24'3110.5
2016-Sep-09 22:33N 38°40' E 025°06'1310.3
2016-Sep-09 21:16N 38°28' E 024°58'1010.0
2016-Sep-09 20:14N 38°19' E 024°52'2010.3
2016-Sep-09 18:18N 38°02' E 024°40'810.4
2016-Sep-09 17:33N 37°55' E 024°34'1110.7
2016-Sep-09 16:33N 37°48' E 024°25'2210.7
2016-Sep-09 14:33N 37°36' E 024°02'1111.0
2016-Sep-09 13:33N 37°37' E 023°49'1010.2
2016-Sep-09 12:33N 37°44' E 023°40'1110.9
2016-Sep-09 11:34N 37°55' E 023°37'3 2.5
2016-Sep-09 10:31N 37°57' E 023°35'0 0.0
2016-Sep-09 09:31N 37°57' E 023°35'0 0.0
2016-Sep-09 08:31N 37°57' E 023°35'0 0.0
2016-Sep-09 07:31N 37°57' E 023°35'0 0.0
2016-Sep-09 06:31N 37°57' E 023°35'0 0.0
2016-Sep-09 05:31N 37°57' E 023°35'0 0.0
2016-Sep-09 04:31N 37°57' E 023°35'0 0.0
2016-Sep-09 03:31N 37°57' E 023°35'0 0.0
2016-Sep-09 02:31N 37°57' E 023°35'0 0.0
2016-Sep-09 01:31N 37°57' E 023°35'0 0.0
2016-Sep-09 00:31N 37°57' E 023°35'0 0.0
2016-Sep-08 23:31N 37°57' E 023°35'0 0.0
2016-Sep-08 22:31N 37°57' E 023°35'0 0.0
2016-Sep-08 21:31N 37°57' E 023°35'0 0.0
2016-Sep-08 20:31N 37°57' E 023°35'0 0.0
2016-Sep-08 19:31N 37°57' E 023°35'0 0.0
2016-Sep-08 18:31N 37°57' E 023°35'0 0.0
2016-Sep-08 17:31N 37°57' E 023°35'0 0.0
2016-Sep-08 16:31N 37°57' E 023°35'0 0.0
2016-Sep-08 15:31N 37°57' E 023°35'0 0.0
2016-Sep-08 14:31N 37°57' E 023°35'0 0.0
2016-Sep-08 13:31N 37°57' E 023°35'0 0.0
2016-Sep-08 12:31N 37°57' E 023°35'0 0.0
2016-Sep-08 11:31N 37°57' E 023°35'0 0.0
2016-Sep-08 10:31N 37°57' E 023°35'0 0.1
2016-Sep-08 09:33N 37°57' E 023°35'5 4.9
2016-Sep-08 08:34N 37°53' E 023°38'1312.6
2016-Sep-08 07:33N 37°42' E 023°45'1211.6
2016-Sep-08 06:33N 37°36' E 023°58'1111.2
2016-Sep-08 05:32N 37°39' E 024°12'1111.0
2016-Sep-08 04:33N 37°46' E 024°21'1110.7
2016-Sep-08 03:30N 37°54' E 024°33'3310.9
2016-Sep-08 00:26N 38°23' E 024°53'8911.2
2016-Sep-07 16:33N 39°44' E 025°40'1212.0
2016-Sep-07 15:32N 39°54' E 025°49'1411.6
2016-Sep-07 14:19N 40°01' E 026°04'12611.5
2016-Sep-07 03:26N 40°52' E 028°35'1011.1
2016-Sep-07 02:33N 40°54' E 028°48'1110.5
2016-Sep-07 01:33N 40°60' E 028°60'274 8.6
2016-Sep-05 17:33N 43°18' E 034°19'1010.5
2016-Sep-05 16:33N 43°22' E 034°32'3510.5
2016-Sep-05 13:14N 43°38' E 035°14'5310.7
2016-Sep-05 08:13N 44°03' E 036°20'811.4
2016-Sep-05 07:28N 44°06' E 036°31'1111.4
2016-Sep-05 06:31N 44°11' E 036°45'2211.1
2016-Sep-05 04:32N 44°21' E 037°12'1111.0
2016-Sep-05 03:34N 44°27' E 037°25'1111.0
2016-Sep-05 02:34N 44°32' E 037°38'1111.1
2016-Sep-05 01:34N 44°39' E 037°51'4 4.3
2016-Sep-05 00:33N 44°43' E 037°49'0 0.0
2016-Sep-04 23:33N 44°43' E 037°49'0 0.0
2016-Sep-04 22:33N 44°43' E 037°49'0 0.0
2016-Sep-04 21:33N 44°43' E 037°49'0 0.0
2016-Sep-04 20:33N 44°43' E 037°49'0 0.0
2016-Sep-04 19:33N 44°43' E 037°49'0 0.0
2016-Sep-04 18:33N 44°43' E 037°49'0 0.0
2016-Sep-04 17:33N 44°43' E 037°49'0 0.0
2016-Sep-04 16:33N 44°43' E 037°49'0 0.0
2016-Sep-04 15:33N 44°43' E 037°49'0 0.0
2016-Sep-04 14:33N 44°43' E 037°49'0 0.0
2016-Sep-04 13:33N 44°43' E 037°49'0 0.0
2016-Sep-04 12:33N 44°43' E 037°49'0 0.0
2016-Sep-04 11:33N 44°43' E 037°49'0 0.0
2016-Sep-04 10:33N 44°43' E 037°49'0 0.0
2016-Sep-04 09:33N 44°43' E 037°49'0 0.0
2016-Sep-04 08:33N 44°43' E 037°49'0 0.0
2016-Sep-04 07:33N 44°43' E 037°49'0 0.0
2016-Sep-04 06:33N 44°43' E 037°49'0 0.0
2016-Sep-04 04:33N 44°43' E 037°49'0 0.0
2016-Sep-04 03:33N 44°43' E 037°49'0 0.0
2016-Sep-04 02:33N 44°43' E 037°49'0 0.0
2016-Sep-04 01:33N 44°43' E 037°49'0 0.0
2016-Sep-04 00:33N 44°43' E 037°49'0 0.0
2016-Sep-03 23:33N 44°43' E 037°49'0 0.0
2016-Sep-03 22:33N 44°43' E 037°49'0 0.0
2016-Sep-03 21:33N 44°43' E 037°49'0 0.0
2016-Sep-03 20:33N 44°43' E 037°49'0 0.0
2016-Sep-03 19:33N 44°43' E 037°49'0 0.0
2016-Sep-03 18:33N 44°43' E 037°49'0 0.0
2016-Sep-03 17:33N 44°43' E 037°49'0 0.0
2016-Sep-03 16:33N 44°43' E 037°49'0 0.0
2016-Sep-03 15:33N 44°43' E 037°49'5 5.5
2016-Sep-03 14:33N 44°38' E 037°51'5 4.8
2016-Sep-03 13:33N 44°33' E 037°51'7 7.1
2016-Sep-03 12:34N 44°29' E 037°43'9 8.6
2016-Sep-03 11:33N 44°25' E 037°32'1110.6
2016-Sep-03 10:33N 44°21' E 037°19'  
Track history (hours):
 
Tides and Currents Weather Stations Pressure Air Temp Water Temp Dewpoint Dewpoint Depression Visibility Wind Speed Wind Dir Waves Ship Positions

Reecon Whale

Last reported at 2016-Sep-10 11:24 UTC. Time now 2016-Sep-28 13:40 UTC.
Position N 39°48' E 025°56'.
Warning: this ship's position is 18 days out of date.

Length 145 m; draft 6.9 m.

Type: Ship. MMSI: 256579000.

Date/timePositionNaut miles runAvg speedWind from/ knotsBaromVisibWave heightAir tempDewpointWater temp
2016-Sep-10 11:24N 39°48' E 025°56'17 2.5
2016-Sep-10 04:31N 39°34' E 025°42'10 9.8
2016-Sep-10 03:31N 39°26' E 025°35'9 9.9
2016-Sep-10 02:33N 39°18' E 025°30'1010.2
2016-Sep-10 01:33N 39°08' E 025°24'3110.5
2016-Sep-09 22:33N 38°40' E 025°06'1310.3
2016-Sep-09 21:16N 38°28' E 024°58'1010.0
2016-Sep-09 20:14N 38°19' E 024°52'2010.3
2016-Sep-09 18:18N 38°02' E 024°40'810.4
2016-Sep-09 17:33N 37°55' E 024°34'1110.7
2016-Sep-09 16:33N 37°48' E 024°25'2210.7
2016-Sep-09 14:33N 37°36' E 024°02'1111.0
2016-Sep-09 13:33N 37°37' E 023°49'1010.2
2016-Sep-09 12:33N 37°44' E 023°40'1110.9
2016-Sep-09 11:34N 37°55' E 023°37'3 2.5
2016-Sep-09 10:31N 37°57' E 023°35'0 0.0
2016-Sep-09 09:31N 37°57' E 023°35'0 0.0
2016-Sep-09 08:31N 37°57' E 023°35'0 0.0
2016-Sep-09 07:31N 37°57' E 023°35'0 0.0
2016-Sep-09 06:31N 37°57' E 023°35'0 0.0
2016-Sep-09 05:31N 37°57' E 023°35'0 0.0
2016-Sep-09 04:31N 37°57' E 023°35'0 0.0
2016-Sep-09 03:31N 37°57' E 023°35'0 0.0
2016-Sep-09 02:31N 37°57' E 023°35'0 0.0
2016-Sep-09 01:31N 37°57' E 023°35'0 0.0
2016-Sep-09 00:31N 37°57' E 023°35'0 0.0
2016-Sep-08 23:31N 37°57' E 023°35'0 0.0
2016-Sep-08 22:31N 37°57' E 023°35'0 0.0
2016-Sep-08 21:31N 37°57' E 023°35'0 0.0
2016-Sep-08 20:31N 37°57' E 023°35'0 0.0
2016-Sep-08 19:31N 37°57' E 023°35'0 0.0
2016-Sep-08 18:31N 37°57' E 023°35'0 0.0
2016-Sep-08 17:31N 37°57' E 023°35'0 0.0
2016-Sep-08 16:31N 37°57' E 023°35'0 0.0
2016-Sep-08 15:31N 37°57' E 023°35'0 0.0
2016-Sep-08 14:31N 37°57' E 023°35'0 0.0
2016-Sep-08 13:31N 37°57' E 023°35'0 0.0
2016-Sep-08 12:31N 37°57' E 023°35'0 0.0
2016-Sep-08 11:31N 37°57' E 023°35'0 0.0
2016-Sep-08 10:31N 37°57' E 023°35'0 0.1
2016-Sep-08 09:33N 37°57' E 023°35'5 4.9
2016-Sep-08 08:34N 37°53' E 023°38'1312.6
2016-Sep-08 07:33N 37°42' E 023°45'1211.6
2016-Sep-08 06:33N 37°36' E 023°58'1111.2
2016-Sep-08 05:32N 37°39' E 024°12'1111.0
2016-Sep-08 04:33N 37°46' E 024°21'1110.7
2016-Sep-08 03:30N 37°54' E 024°33'3310.9
2016-Sep-08 00:26N 38°23' E 024°53'8911.2
2016-Sep-07 16:33N 39°44' E 025°40'1212.0
2016-Sep-07 15:32N 39°54' E 025°49'1411.6
2016-Sep-07 14:19N 40°01' E 026°04'12611.5
2016-Sep-07 03:26N 40°52' E 028°35'1011.1
2016-Sep-07 02:33N 40°54' E 028°48'1110.5
2016-Sep-07 01:33N 40°60' E 028°60'274 8.6
2016-Sep-05 17:33N 43°18' E 034°19'1010.5
2016-Sep-05 16:33N 43°22' E 034°32'3510.5
2016-Sep-05 13:14N 43°38' E 035°14'5310.7
2016-Sep-05 08:13N 44°03' E 036°20'811.4
2016-Sep-05 07:28N 44°06' E 036°31'1111.4
2016-Sep-05 06:31N 44°11' E 036°45'2211.1
2016-Sep-05 04:32N 44°21' E 037°12'1111.0
2016-Sep-05 03:34N 44°27' E 037°25'1111.0
2016-Sep-05 02:34N 44°32' E 037°38'1111.1
2016-Sep-05 01:34N 44°39' E 037°51'4 4.3
2016-Sep-05 00:33N 44°43' E 037°49'0 0.0
2016-Sep-04 23:33N 44°43' E 037°49'0 0.0
2016-Sep-04 22:33N 44°43' E 037°49'0 0.0
2016-Sep-04 21:33N 44°43' E 037°49'0 0.0
2016-Sep-04 20:33N 44°43' E 037°49'0 0.0
2016-Sep-04 19:33N 44°43' E 037°49'0 0.0
2016-Sep-04 18:33N 44°43' E 037°49'0 0.0
2016-Sep-04 17:33N 44°43' E 037°49'0 0.0
2016-Sep-04 16:33N 44°43' E 037°49'0 0.0
2016-Sep-04 15:33N 44°43' E 037°49'0 0.0
2016-Sep-04 14:33N 44°43' E 037°49'0 0.0
2016-Sep-04 13:33N 44°43' E 037°49'0 0.0
2016-Sep-04 12:33N 44°43' E 037°49'0 0.0
2016-Sep-04 11:33N 44°43' E 037°49'0 0.0
2016-Sep-04 10:33N 44°43' E 037°49'0 0.0
2016-Sep-04 09:33N 44°43' E 037°49'0 0.0
2016-Sep-04 08:33N 44°43' E 037°49'0 0.0
2016-Sep-04 07:33N 44°43' E 037°49'0 0.0
2016-Sep-04 06:33N 44°43' E 037°49'0 0.0
2016-Sep-04 04:33N 44°43' E 037°49'0 0.0
2016-Sep-04 03:33N 44°43' E 037°49'0 0.0
2016-Sep-04 02:33N 44°43' E 037°49'0 0.0
2016-Sep-04 01:33N 44°43' E 037°49'0 0.0
2016-Sep-04 00:33N 44°43' E 037°49'0 0.0
2016-Sep-03 23:33N 44°43' E 037°49'0 0.0
2016-Sep-03 22:33N 44°43' E 037°49'0 0.0
2016-Sep-03 21:33N 44°43' E 037°49'0 0.0
2016-Sep-03 20:33N 44°43' E 037°49'0 0.0
2016-Sep-03 19:33N 44°43' E 037°49'0 0.0
2016-Sep-03 18:33N 44°43' E 037°49'0 0.0
2016-Sep-03 17:33N 44°43' E 037°49'0 0.0
2016-Sep-03 16:33N 44°43' E 037°49'0 0.0
2016-Sep-03 15:33N 44°43' E 037°49'5 5.5
2016-Sep-03 14:33N 44°38' E 037°51'5 4.8
2016-Sep-03 13:33N 44°33' E 037°51'7 7.1
2016-Sep-03 12:34N 44°29' E 037°43'9 8.6
2016-Sep-03 11:33N 44°25' E 037°32'1110.6
2016-Sep-03 10:33N 44°21' E 037°19'  

Dump ship's entire track history